Time;durP1;ratioP1;P1;durP2;ratioP2;P2;SDS_P1;SDS_P2;PMS_P1;PMS_P2;Temp;Humidity;BMP_temperature;BMP_pressure;BME280_temperature;BME280_humidity;BME280_pressure;Samples;Min_cycle;Max_cycle;Signal;HPM_P1;HPM_P2
2022/03/23 00:00:27;;;;;;;12.73;6.97;;;8.50;99.90;;;;;;5054836;28;20519;-68
2022/03/23 00:02:54;;;;;;;12.53;6.77;;;8.50;99.90;;;;;;5062656;28;20458;-68
2022/03/23 00:05:21;;;;;;;14.13;7.47;;;8.50;99.90;;;;;;5060362;28;20451;-69
2022/03/23 00:07:49;;;;;;;11.37;7.40;;;8.40;99.90;;;;;;5059553;28;20919;-68
2022/03/23 00:10:16;;;;;;;10.00;5.43;;;8.40;99.90;;;;;;5055202;28;20479;-68
2022/03/23 00:12:44;;;;;;;20.30;7.40;;;8.40;99.90;;;;;;5056709;28;21090;-68
2022/03/23 00:15:12;;;;;;;15.13;5.73;;;8.40;99.90;;;;;;5054937;28;20519;-68
2022/03/23 00:17:39;;;;;;;12.40;6.50;;;8.30;99.90;;;;;;5045015;28;20531;-68
2022/03/23 00:20:07;;;;;;;9.83;6.37;;;8.20;99.90;;;;;;5054746;28;20453;-68
2022/03/23 00:22:34;;;;;;;11.90;6.90;;;8.10;99.90;;;;;;5054004;28;20489;-69
2022/03/23 00:25:02;;;;;;;15.27;7.77;;;8.20;99.90;;;;;;5054314;28;20437;-69
2022/03/23 00:27:29;;;;;;;25.63;8.43;;;8.10;99.90;;;;;;5057427;28;20491;-69
2022/03/23 00:43:25;;;;;;;14.60;7.93;;;8.10;99.90;;;;;;5065031;28;20453;-69
2022/03/23 00:45:52;;;;;;;8.27;5.97;;;8.00;99.90;;;;;;5055175;28;20721;-69
2022/03/23 00:48:19;;;;;;;17.50;8.30;;;7.80;99.90;;;;;;5054126;28;20445;-69
2022/03/23 00:50:46;;;;;;;10.57;6.83;;;7.90;99.90;;;;;;5050950;28;20457;-69
2022/03/23 00:53:13;;;;;;;12.57;7.43;;;8.00;99.90;;;;;;5057201;28;20647;-69
2022/03/23 00:55:41;;;;;;;15.30;8.43;;;7.90;99.90;;;;;;5056929;28;20449;-69
2022/03/23 00:58:08;;;;;;;11.87;8.30;;;8.00;99.90;;;;;;5057256;28;20442;-69
2022/03/23 01:00:36;;;;;;;14.83;7.80;;;7.90;99.90;;;;;;5057863;28;20474;-69
2022/03/23 01:03:04;;;;;;;14.33;8.27;;;7.80;99.90;;;;;;5060273;28;20425;-69
2022/03/23 01:05:31;;;;;;;18.77;7.40;;;7.70;99.90;;;;;;5054790;28;20468;-68
2022/03/23 01:07:57;;;;;;;9.80;7.63;;;7.60;99.90;;;;;;5061924;28;20780;-68
2022/03/23 01:10:24;;;;;;;18.83;7.93;;;7.60;99.90;;;;;;5060122;28;20449;-68
2022/03/23 01:12:51;;;;;;;19.33;10.27;;;7.70;99.90;;;;;;5060596;28;20465;-68
2022/03/23 01:15:20;;;;;;;14.03;8.57;;;7.50;99.90;;;;;;5064201;28;20531;-68
2022/03/23 01:17:48;;;;;;;12.63;8.87;;;7.50;99.90;;;;;;5057544;28;20428;-68
2022/03/23 01:20:16;;;;;;;15.80;7.20;;;7.40;99.90;;;;;;5064148;28;20456;-68
2022/03/23 01:22:44;;;;;;;13.03;7.60;;;7.30;99.90;;;;;;5055937;28;20520;-67
2022/03/23 01:25:12;;;;;;;11.43;8.37;;;7.40;99.90;;;;;;5059875;28;20469;-67
2022/03/23 01:27:40;;;;;;;16.00;9.30;;;7.50;99.90;;;;;;5062041;28;20865;-68
2022/03/23 01:30:09;;;;;;;16.23;7.57;;;7.40;99.90;;;;;;5059282;28;20971;-67
2022/03/23 01:32:36;;;;;;;22.53;9.10;;;7.30;99.90;;;;;;5063205;28;20463;-68
2022/03/23 01:35:07;;;;;;;17.90;11.00;;;7.10;99.90;;;;;;5053364;28;20453;-68
2022/03/23 01:37:35;;;;;;;10.67;8.30;;;7.20;99.90;;;;;;5053356;28;20463;-68
2022/03/23 01:40:02;;;;;;;18.20;9.80;;;7.10;99.90;;;;;;5050700;28;20986;-68
2022/03/23 01:42:29;;;;;;;13.50;9.43;;;7.10;99.90;;;;;;5049345;28;20860;-67
2022/03/23 01:44:55;;;;;;;10.07;6.07;;;7.10;99.90;;;;;;5058908;28;20974;-68
2022/03/23 01:47:22;;;;;;;11.53;7.60;;;7.20;99.90;;;;;;5055281;28;20522;-69
2022/03/23 01:49:52;;;;;;;20.03;8.97;;;7.00;99.90;;;;;;5051217;28;20457;-67
2022/03/23 01:52:22;;;;;;;27.73;8.20;;;6.90;99.90;;;;;;5045161;28;20593;-68
2022/03/23 01:54:49;;;;;;;13.73;8.83;;;6.90;99.90;;;;;;5058423;28;22322;-68
2022/03/23 01:57:19;;;;;;;12.07;6.80;;;6.80;99.90;;;;;;5053494;28;20453;-67
2022/03/23 01:59:47;;;;;;;17.53;7.70;;;6.80;99.90;;;;;;5056302;28;20577;-68
2022/03/23 02:02:14;;;;;;;21.70;8.63;;;6.90;99.90;;;;;;5061219;28;20433;-67
2022/03/23 02:04:41;;;;;;;17.67;7.43;;;7.00;99.90;;;;;;5052303;28;20545;-67
2022/03/23 02:07:08;;;;;;;15.97;7.70;;;6.80;99.90;;;;;;5057372;28;20542;-68
2022/03/23 02:09:36;;;;;;;10.63;8.07;;;6.70;99.90;;;;;;5057615;28;20463;-68
2022/03/23 02:12:08;;;;;;;16.90;11.10;;;6.80;99.90;;;;;;5053025;28;20573;-67
2022/03/23 02:14:35;;;;;;;14.20;8.67;;;6.90;99.90;;;;;;5056585;28;20575;-67
2022/03/23 02:17:02;;;;;;;12.17;6.60;;;6.90;99.90;;;;;;5048054;28;20937;-67
2022/03/23 02:19:29;;;;;;;13.60;7.00;;;6.80;99.90;;;;;;5053634;28;20893;-70
2022/03/23 02:21:57;;;;;;;11.73;7.53;;;6.90;99.90;;;;;;5056873;28;20452;-67
2022/03/23 02:24:26;;;;;;;17.80;7.33;;;6.90;99.90;;;;;;5053082;28;27394;-68
2022/03/23 02:26:53;;;;;;;14.33;7.80;;;6.80;99.90;;;;;;5058621;28;20490;-70
2022/03/23 02:29:22;;;;;;;12.73;8.00;;;6.80;99.90;;;;;;5056452;28;20443;-68
2022/03/23 02:31:48;;;;;;;12.87;7.70;;;6.80;99.90;;;;;;5059822;28;20490;-69
2022/03/23 02:34:16;;;;;;;14.90;8.97;;;6.70;99.90;;;;;;5058088;28;21188;-69
2022/03/23 02:36:43;;;;;;;8.23;7.00;;;6.60;99.90;;;;;;5060372;28;20505;-70
2022/03/23 02:39:12;;;;;;;18.37;8.33;;;6.60;99.90;;;;;;5060257;28;20445;-69
2022/03/23 02:41:39;;;;;;;17.40;8.57;;;6.60;99.90;;;;;;5053157;28;20622;-69
2022/03/23 02:44:06;;;;;;;13.10;6.80;;;6.60;99.90;;;;;;5051970;28;20452;-69
2022/03/23 02:46:35;;;;;;;12.80;7.37;;;6.50;99.90;;;;;;5058444;28;20487;-69
2022/03/23 02:49:02;;;;;;;15.37;9.77;;;6.30;99.90;;;;;;5054074;28;20936;-69
2022/03/23 02:51:29;;;;;;;15.33;7.27;;;6.30;99.90;;;;;;5049621;28;20571;-69
2022/03/23 03:02:22;;;;;;;10.00;7.07;;;6.40;99.90;;;;;;5051872;28;20555;-69
2022/03/23 03:04:49;;;;;;;19.00;8.03;;;6.30;99.90;;;;;;5053089;28;20837;-68
2022/03/23 03:07:16;;;;;;;13.00;6.47;;;6.10;99.90;;;;;;5062689;28;20459;-69
2022/03/23 03:09:43;;;;;;;11.50;5.90;;;6.00;99.90;;;;;;5058994;28;21049;-68
2022/03/23 03:12:12;;;;;;;14.00;5.97;;;6.00;99.90;;;;;;5057540;28;20551;-69
2022/03/23 03:14:39;;;;;;;11.27;6.93;;;6.00;99.90;;;;;;5052429;28;20965;-69
2022/03/23 03:17:06;;;;;;;15.00;8.80;;;6.00;99.90;;;;;;5059168;28;20462;-69
2022/03/23 03:19:33;;;;;;;10.73;8.27;;;6.00;99.90;;;;;;5058211;28;20482;-69
2022/03/23 03:22:00;;;;;;;13.93;6.40;;;6.10;99.90;;;;;;5058397;28;20484;-69
2022/03/23 03:24:27;;;;;;;11.17;6.50;;;6.10;99.90;;;;;;5058989;28;21062;-69
2022/03/23 03:26:54;;;;;;;13.60;8.40;;;6.10;99.90;;;;;;5057692;28;20896;-69
2022/03/23 03:29:23;;;;;;;24.93;9.07;;;6.10;99.90;;;;;;5057046;28;20446;-69
2022/03/23 03:31:50;;;;;;;12.87;7.87;;;6.10;99.90;;;;;;5059289;28;21062;-69
2022/03/23 03:34:17;;;;;;;16.97;9.53;;;6.00;99.90;;;;;;5056502;28;20452;-69
2022/03/23 03:36:44;;;;;;;15.37;7.83;;;6.00;99.90;;;;;;5057575;28;20484;-69
2022/03/23 03:39:10;;;;;;;13.30;7.80;;;5.90;99.90;;;;;;5056700;28;20421;-68
2022/03/23 03:41:37;;;;;;;14.80;8.47;;;5.90;99.90;;;;;;5061022;28;20449;-68
2022/03/23 03:44:04;;;;;;;11.43;6.83;;;5.90;99.90;;;;;;5059640;28;20507;-68
2022/03/23 03:46:32;;;;;;;12.93;7.70;;;5.90;99.90;;;;;;5062578;28;20459;-68
2022/03/23 03:48:59;;;;;;;12.57;8.20;;;5.90;99.90;;;;;;5061151;28;20428;-68
2022/03/23 03:51:26;;;;;;;8.83;7.20;;;5.70;99.90;;;;;;5053583;28;20547;-68
2022/03/23 03:53:52;;;;;;;13.63;7.20;;;5.60;99.90;;;;;;5056350;28;20448;-67
2022/03/23 03:56:19;;;;;;;16.20;8.43;;;5.40;99.90;;;;;;5053958;28;20455;-68
2022/03/23 03:58:46;;;;;;;17.20;7.47;;;5.40;99.90;;;;;;5057165;28;20972;-68
2022/03/23 04:01:14;;;;;;;12.63;7.20;;;5.50;99.90;;;;;;5062573;28;21042;-68
2022/03/23 04:03:42;;;;;;;10.87;7.77;;;5.60;99.90;;;;;;5061984;28;20422;-68
2022/03/23 04:06:09;;;;;;;12.20;5.93;;;5.50;99.90;;;;;;5062078;28;20490;-68
2022/03/23 04:08:36;;;;;;;18.43;7.40;;;5.40;99.90;;;;;;5064685;28;20425;-68
2022/03/23 04:11:04;;;;;;;21.13;8.63;;;5.40;99.90;;;;;;5054031;28;20970;-69
2022/03/23 04:13:30;;;;;;;15.77;6.80;;;5.30;99.90;;;;;;5064402;28;20447;-67
2022/03/23 04:15:57;;;;;;;15.80;8.67;;;5.20;99.90;;;;;;5060586;28;20466;-68
2022/03/23 04:18:23;;;;;;;11.23;8.20;;;5.30;99.90;;;;;;5056904;28;20462;-68
2022/03/23 04:20:51;;;;;;;15.43;7.90;;;5.40;99.90;;;;;;5050661;28;20487;-68
2022/03/23 04:23:18;;;;;;;14.20;7.10;;;5.40;99.90;;;;;;5058502;28;20457;-68
2022/03/23 04:25:45;;;;;;;18.53;8.60;;;5.50;99.90;;;;;;5045151;28;20456;-69
2022/03/23 04:28:12;;;;;;;19.33;9.67;;;5.40;99.90;;;;;;5057176;28;20433;-67
2022/03/23 04:30:39;;;;;;;20.47;8.23;;;5.60;99.90;;;;;;5057098;28;20453;-67
2022/03/23 04:33:06;;;;;;;17.73;9.37;;;5.60;99.90;;;;;;5055747;28;20456;-68
2022/03/23 04:35:33;;;;;;;15.17;7.87;;;5.60;99.90;;;;;;5055050;28;20468;-69
2022/03/23 04:38:01;;;;;;;13.50;8.23;;;5.50;99.90;;;;;;5051259;28;20482;-68
2022/03/23 04:40:28;;;;;;;17.63;6.73;;;5.50;99.90;;;;;;5051594;28;20442;-68
2022/03/23 04:42:54;;;;;;;12.93;8.60;;;5.40;99.90;;;;;;5056293;28;20467;-69
2022/03/23 04:45:21;;;;;;;18.30;9.97;;;5.40;99.90;;;;;;5051877;28;20437;-68
2022/03/23 04:47:48;;;;;;;14.80;8.07;;;5.50;99.90;;;;;;5059307;28;20502;-68
2022/03/23 04:50:15;;;;;;;9.13;7.20;;;5.50;99.90;;;;;;5057749;28;20832;-68
2022/03/23 04:52:44;;;;;;;12.27;6.97;;;5.30;99.90;;;;;;5060584;28;20455;-69
2022/03/23 04:55:16;;;;;;;17.13;7.80;;;5.20;99.90;;;;;;5052862;28;20854;-69
2022/03/23 04:57:43;;;;;;;20.30;9.20;;;5.20;99.90;;;;;;5051002;28;20589;-68
2022/03/23 05:00:13;;;;;;;11.63;9.07;;;5.30;99.90;;;;;;5050420;28;20494;-69
2022/03/23 05:02:39;;;;;;;8.10;5.97;;;5.40;99.90;;;;;;5043950;28;20429;-69
2022/03/23 05:05:07;;;;;;;10.63;6.50;;;5.30;99.90;;;;;;5057981;28;20498;-69
2022/03/23 05:07:34;;;;;;;18.53;7.70;;;5.30;99.90;;;;;;5054742;28;20556;-69
2022/03/23 05:10:03;;;;;;;14.60;7.07;;;5.20;99.90;;;;;;5056985;28;20453;-69
2022/03/23 05:12:31;;;;;;;12.87;7.10;;;5.10;99.90;;;;;;5062300;28;20456;-69
2022/03/23 05:14:58;;;;;;;14.37;8.37;;;4.90;99.90;;;;;;5056671;28;20487;-69
2022/03/23 05:17:25;;;;;;;9.53;6.77;;;5.00;99.90;;;;;;5058138;28;20845;-69
2022/03/23 05:19:51;;;;;;;13.00;7.90;;;5.00;99.90;;;;;;5053491;28;20460;-68
2022/03/23 05:22:18;;;;;;;10.97;6.77;;;4.90;99.90;;;;;;5065750;28;20455;-69
2022/03/23 05:24:45;;;;;;;10.00;6.87;;;5.00;99.90;;;;;;5064682;28;20433;-69
2022/03/23 05:27:11;;;;;;;10.23;6.17;;;5.00;99.90;;;;;;5063271;28;20485;-69
2022/03/23 05:29:40;;;;;;;9.73;7.13;;;4.90;99.90;;;;;;5064456;28;20459;-69
2022/03/23 05:32:07;;;;;;;14.57;9.23;;;4.80;99.90;;;;;;5061664;28;20437;-69
2022/03/23 05:34:34;;;;;;;17.47;6.73;;;4.70;99.90;;;;;;5059566;28;20554;-69
2022/03/23 05:37:01;;;;;;;16.83;7.53;;;4.70;99.90;;;;;;5066993;28;20480;-69
2022/03/23 05:39:27;;;;;;;12.10;7.50;;;4.70;99.90;;;;;;5061812;28;20455;-69
2022/03/23 05:41:54;;;;;;;20.17;9.63;;;4.80;99.90;;;;;;5061386;28;20428;-69
2022/03/23 05:44:20;;;;;;;14.73;8.37;;;4.90;99.90;;;;;;5059671;28;20454;-69
2022/03/23 05:46:48;;;;;;;11.83;6.90;;;4.90;99.90;;;;;;5063102;28;20441;-69
2022/03/23 05:49:15;;;;;;;22.73;8.47;;;4.90;99.90;;;;;;5061994;28;20483;-69
2022/03/23 05:51:42;;;;;;;20.80;7.67;;;4.90;99.90;;;;;;5058816;28;20457;-69
2022/03/23 05:54:08;;;;;;;32.23;8.33;;;4.90;99.90;;;;;;5059961;28;20433;-69
2022/03/23 05:56:35;;;;;;;20.70;9.53;;;5.00;99.90;;;;;;5058926;28;20489;-69
2022/03/23 05:59:02;;;;;;;10.53;7.10;;;5.00;99.90;;;;;;5061809;28;20593;-69
2022/03/23 06:01:36;;;;;;;14.00;8.13;;;5.40;99.90;;;;;;5051627;28;20545;-71
2022/03/23 06:04:05;;;;;;;14.97;8.40;;;5.80;99.90;;;;;;5061148;28;20432;-68
2022/03/23 06:06:31;;;;;;;15.07;7.50;;;6.20;99.90;;;;;;5061954;28;20502;-68
2022/03/23 06:08:59;;;;;;;12.27;7.60;;;6.50;99.90;;;;;;5063485;28;20983;-68
2022/03/23 06:11:26;;;;;;;14.10;7.63;;;6.60;99.90;;;;;;5060099;28;20473;-68
2022/03/23 06:13:52;;;;;;;22.03;10.20;;;6.30;99.90;;;;;;5063611;28;20590;-67
2022/03/23 06:16:19;;;;;;;16.07;6.93;;;6.40;99.90;;;;;;5062839;28;20465;-68
2022/03/23 06:18:47;;;;;;;14.27;8.80;;;6.30;99.90;;;;;;5057192;28;20980;-69
2022/03/23 06:21:15;;;;;;;13.23;8.60;;;6.20;99.90;;;;;;5059820;28;20481;-68
2022/03/23 06:23:42;;;;;;;18.10;8.93;;;6.10;99.90;;;;;;5054934;28;20500;-69
2022/03/23 06:26:09;;;;;;;33.20;8.27;;;5.30;99.90;;;;;;5053819;28;20425;-69
2022/03/23 06:28:35;;;;;;;12.77;8.70;;;5.10;99.90;;;;;;5059347;28;20454;-69
2022/03/23 06:31:02;;;;;;;12.90;7.20;;;5.50;99.90;;;;;;5060863;28;20935;-69
2022/03/23 06:33:29;;;;;;;14.20;8.70;;;6.00;99.90;;;;;;5059631;28;20509;-69
2022/03/23 06:35:56;;;;;;;16.37;8.30;;;6.50;99.90;;;;;;5065180;28;20510;-69
2022/03/23 06:38:24;;;;;;;16.20;9.53;;;6.90;99.90;;;;;;5059268;28;20445;-69
2022/03/23 06:40:50;;;;;;;19.00;7.63;;;7.30;99.90;;;;;;5062491;28;20844;-69
2022/03/23 06:43:17;;;;;;;16.40;7.87;;;7.50;99.90;;;;;;5058723;28;20504;-69
2022/03/23 06:45:44;;;;;;;19.80;10.33;;;7.90;99.90;;;;;;5057275;28;20437;-69
2022/03/23 06:48:12;;;;;;;16.53;9.90;;;8.10;99.90;;;;;;5056661;28;20440;-69
2022/03/23 06:50:39;;;;;;;17.73;10.60;;;8.40;99.90;;;;;;5057524;28;20520;-69
2022/03/23 06:53:06;;;;;;;19.93;9.80;;;8.80;99.90;;;;;;5064515;28;20425;-69
2022/03/23 06:55:34;;;;;;;19.50;9.40;;;8.90;99.90;;;;;;5058619;28;20461;-69
2022/03/23 06:58:00;;;;;;;16.73;10.33;;;8.90;99.90;;;;;;5061060;28;20486;-69
2022/03/23 07:00:27;;;;;;;17.07;9.90;;;9.00;99.90;;;;;;5054526;28;20806;-70
2022/03/23 07:02:54;;;;;;;19.80;12.27;;;9.40;99.90;;;;;;5059371;28;20512;-69
2022/03/23 07:05:21;;;;;;;17.80;8.33;;;9.80;99.90;;;;;;5068812;28;20554;-69
2022/03/23 07:10:36;;;;;;;16.03;8.50;;;10.20;99.90;;;;;;5060849;28;21378;-69
2022/03/23 07:13:03;;;;;;;19.57;9.93;;;10.40;99.90;;;;;;5060289;28;20454;-69
2022/03/23 07:15:30;;;;;;;16.10;9.40;;;10.50;99.90;;;;;;5061782;28;20554;-69
2022/03/23 07:17:57;;;;;;;16.00;9.97;;;10.90;99.90;;;;;;5058528;28;21833;-69
2022/03/23 07:20:24;;;;;;;17.70;12.80;;;11.30;99.90;;;;;;5059258;28;20516;-70
2022/03/23 07:22:51;;;;;;;20.27;11.90;;;11.90;99.90;;;;;;5052911;28;20880;-69
2022/03/23 07:25:17;;;;;;;17.33;11.30;;;12.10;99.90;;;;;;5059030;28;20465;-70
2022/03/23 07:27:45;;;;;;;26.53;13.30;;;12.20;99.90;;;;;;5059500;28;20455;-69
2022/03/23 07:30:12;;;;;;;30.07;10.50;;;12.00;99.90;;;;;;5063410;28;20467;-69
2022/03/23 07:32:39;;;;;;;25.87;12.77;;;11.70;99.90;;;;;;5061604;28;20446;-69
2022/03/23 07:35:07;;;;;;;17.73;11.90;;;11.50;99.90;;;;;;5052561;28;20482;-69
2022/03/23 07:37:34;;;;;;;24.63;11.67;;;11.30;99.90;;;;;;5052051;28;20449;-70
2022/03/23 07:40:01;;;;;;;18.73;10.57;;;11.30;99.90;;;;;;5052170;28;20482;-70
2022/03/23 07:42:27;;;;;;;18.97;10.10;;;11.10;99.90;;;;;;5057668;28;20467;-69
2022/03/23 07:44:55;;;;;;;22.83;12.80;;;11.20;99.90;;;;;;5057583;28;20451;-69
2022/03/23 07:47:22;;;;;;;20.93;10.83;;;11.30;99.90;;;;;;5056212;28;20506;-69
2022/03/23 07:49:49;;;;;;;18.80;11.63;;;11.40;99.90;;;;;;5054453;28;20609;-69
2022/03/23 07:52:18;;;;;;;25.23;10.63;;;11.60;99.90;;;;;;5058544;28;21237;-69
2022/03/23 07:54:45;;;;;;;17.20;10.30;;;11.80;99.90;;;;;;5052389;28;20432;-68
2022/03/23 07:57:11;;;;;;;18.37;11.07;;;12.10;99.90;;;;;;5058621;28;20471;-68
2022/03/23 07:59:38;;;;;;;21.07;13.30;;;12.60;99.90;;;;;;5061135;28;20547;-69
2022/03/23 08:02:07;;;;;;;26.30;11.73;;;13.40;99.90;;;;;;5056860;28;20458;-69
2022/03/23 08:04:34;;;;;;;18.60;11.37;;;14.10;99.90;;;;;;5057493;28;20446;-69
2022/03/23 08:07:01;;;;;;;26.53;12.30;;;13.90;99.90;;;;;;5065993;28;20435;-70
2022/03/23 08:09:28;;;;;;;18.57;10.77;;;14.30;99.90;;;;;;5065874;28;20971;-69
2022/03/23 08:11:56;;;;;;;13.53;10.00;;;14.70;99.60;;;;;;5065096;28;21020;-69
2022/03/23 08:14:22;;;;;;;16.43;9.43;;;14.90;98.10;;;;;;5064885;28;20462;-69
2022/03/23 08:16:49;;;;;;;22.50;13.53;;;15.40;97.20;;;;;;5060451;28;20486;-69
2022/03/23 08:19:17;;;;;;;28.97;12.10;;;16.00;95.70;;;;;;5064624;28;20458;-69
2022/03/23 08:21:44;;;;;;;20.97;14.67;;;16.60;94.70;;;;;;5066629;28;20465;-69
2022/03/23 08:24:10;;;;;;;13.87;10.30;;;17.20;93.90;;;;;;5065887;28;20564;-69
2022/03/23 08:26:37;;;;;;;14.27;10.57;;;18.00;89.20;;;;;;5073192;28;20676;-69
2022/03/23 08:29:04;;;;;;;20.37;12.80;;;18.50;85.40;;;;;;5070879;28;20571;-69
2022/03/23 08:31:30;;;;;;;23.90;10.77;;;18.80;82.50;;;;;;5069951;28;20642;-69
2022/03/23 08:33:57;;;;;;;19.50;13.57;;;19.60;77.00;;;;;;5068900;28;20449;-69
2022/03/23 08:36:25;;;;;;;17.93;12.57;;;20.00;73.70;;;;;;5064479;28;20540;-69
2022/03/23 08:38:52;;;;;;;17.30;15.30;;;20.40;70.40;;;;;;5064682;28;20455;-69
2022/03/23 08:41:18;;;;;;;20.77;13.67;;;21.20;67.20;;;;;;5060673;28;20466;-69
2022/03/23 08:43:45;;;;;;;21.10;13.70;;;21.50;64.40;;;;;;5059494;28;20458;-69
2022/03/23 08:46:13;;;;;;;54.07;29.10;;;22.20;65.20;;;;;;5060598;28;20517;-69
2022/03/23 08:48:40;;;;;;;35.50;22.83;;;22.20;62.40;;;;;;5070428;28;20530;-69
2022/03/23 08:51:07;;;;;;;19.80;13.63;;;22.70;59.40;;;;;;5059112;28;20477;-69
2022/03/23 08:53:35;;;;;;;16.90;12.93;;;23.30;55.90;;;;;;5066196;28;20540;-69
2022/03/23 08:56:01;;;;;;;29.73;26.50;;;22.90;54.50;;;;;;5070087;28;20486;-69
2022/03/23 08:58:28;;;;;;;23.33;13.30;;;21.40;55.70;;;;;;5066220;28;20584;-69
2022/03/23 09:00:55;;;;;;;21.80;15.87;;;21.10;56.50;;;;;;5059666;28;20496;-69
2022/03/23 09:03:21;;;;;;;17.13;12.40;;;22.30;56.50;;;;;;5065339;28;20450;-69
2022/03/23 09:05:48;;;;;;;19.83;15.57;;;23.40;55.30;;;;;;5065428;28;20459;-70
2022/03/23 09:08:14;;;;;;;23.80;14.93;;;24.20;54.60;;;;;;5063025;28;20467;-67
2022/03/23 09:10:42;;;;;;;17.17;12.80;;;23.70;51.90;;;;;;5064974;28;20535;-70
2022/03/23 09:13:09;;;;;;;19.10;13.37;;;24.30;52.80;;;;;;5061422;28;20431;-70
2022/03/23 09:15:36;;;;;;;21.63;15.47;;;24.90;51.20;;;;;;5067197;28;20478;-67
2022/03/23 09:18:04;;;;;;;17.00;13.10;;;24.90;50.10;;;;;;5065621;28;20484;-68
2022/03/23 09:20:32;;;;;;;17.13;12.67;;;24.60;49.00;;;;;;5066949;28;20473;-68
2022/03/23 09:22:59;;;;;;;21.13;14.70;;;24.70;49.60;;;;;;5063265;28;20443;-68
2022/03/23 09:25:26;;;;;;;21.27;14.17;;;24.90;48.90;;;;;;5067354;28;20443;-68
2022/03/23 09:27:54;;;;;;;23.53;14.47;;;25.50;48.00;;;;;;5067549;28;20435;-68
2022/03/23 09:30:21;;;;;;;21.03;15.80;;;25.90;47.90;;;;;;5065170;28;20618;-68
2022/03/23 09:32:48;;;;;;;22.57;16.70;;;25.90;47.80;;;;;;5065716;28;20434;-69
2022/03/23 09:35:16;;;;;;;17.00;12.57;;;26.70;46.10;;;;;;5065197;28;20455;-68
2022/03/23 09:37:48;;;;;;;15.37;11.67;;;27.00;44.80;;;;;;5069316;28;20527;-69
2022/03/23 09:40:17;;;;;;;16.93;13.50;;;27.30;44.50;;;;;;5061929;28;20833;-68
2022/03/23 09:42:44;;;;;;;19.13;15.77;;;27.40;43.10;;;;;;5067627;28;20512;-69
2022/03/23 09:45:21;;;;;;;17.87;13.87;;;27.60;44.70;;;;;;5068683;28;20443;-69
2022/03/23 09:47:48;;;;;;;18.57;13.40;;;27.90;44.20;;;;;;5068145;28;20446;-68
2022/03/23 09:50:15;;;;;;;21.30;14.23;;;28.10;42.30;;;;;;5069416;28;20983;-69
2022/03/23 09:52:41;;;;;;;20.67;15.13;;;28.90;42.70;;;;;;5063214;28;20457;-68
2022/03/23 09:55:09;;;;;;;29.27;21.30;;;29.00;40.80;;;;;;5066112;28;20493;-68
2022/03/23 09:57:37;;;;;;;14.50;12.47;;;29.30;40.30;;;;;;5068549;28;20482;-68
2022/03/23 10:00:05;;;;;;;21.00;15.30;;;29.10;40.70;;;;;;5066412;28;20496;-68
2022/03/23 10:03:31;;;;;;;19.13;15.30;;;28.90;39.50;;;;;;5066521;28;20510;-69
2022/03/23 10:06:34;;;;;;;20.20;14.67;;;29.50;38.30;;;;;;4985320;28;20517;-69
2022/03/23 10:09:36;;;;;;;19.70;13.67;;;29.70;39.70;;;;;;4977728;28;20951;-69
2022/03/23 10:12:58;;;;;;;17.60;13.70;;;29.90;39.20;;;;;;5064468;28;20442;-68
2022/03/23 10:16:24;;;;;;;25.20;13.83;;;30.00;38.00;;;;;;5065980;28;20450;-68
2022/03/23 10:18:56;;;;;;;17.33;12.87;;;30.30;37.30;;;;;;5065855;28;20449;-69
2022/03/23 10:21:24;;;;;;;19.53;15.17;;;30.20;36.90;;;;;;5064418;28;20529;-69
2022/03/23 10:24:24;;;;;;;22.97;15.07;;;30.40;36.60;;;;;;5064178;28;20439;-69
2022/03/23 10:26:51;;;;;;;20.90;15.40;;;30.50;35.10;;;;;;5061881;28;20459;-69
2022/03/23 10:29:22;;;;;;;21.17;16.93;;;31.00;37.10;;;;;;5067526;28;20451;-69
2022/03/23 10:32:00;;;;;;;21.97;15.10;;;30.90;35.10;;;;;;5053480;28;20470;-69
2022/03/23 10:34:38;;;;;;;17.83;12.87;;;30.60;33.70;;;;;;5054277;28;20438;-69
2022/03/23 10:37:04;;;;;;;17.93;14.93;;;30.50;34.20;;;;;;5050781;28;20474;-68
2022/03/23 10:39:32;;;;;;;16.10;14.00;;;31.10;34.20;;;;;;5058974;28;21003;-68
2022/03/23 10:42:05;;;;;;;17.83;13.00;;;31.20;34.30;;;;;;5057614;28;20443;-68
2022/03/23 10:44:32;;;;;;;27.13;14.73;;;30.90;32.60;;;;;;5060293;28;20481;-68
2022/03/23 10:46:59;;;;;;;17.23;14.07;;;29.40;33.70;;;;;;5057763;28;20485;-69
2022/03/23 10:49:33;;;;;;;21.10;15.33;;;30.30;32.60;;;;;;5061063;28;20498;-69
2022/03/23 10:52:15;;;;;;;16.60;12.70;;;31.40;31.60;;;;;;5061432;28;20795;-69
2022/03/23 10:54:53;;;;;;;17.30;12.50;;;31.80;30.80;;;;;;5056842;28;20456;-69
2022/03/23 10:57:20;;;;;;;20.73;13.10;;;32.10;29.20;;;;;;5057546;28;20438;-69
2022/03/23 10:59:48;;;;;;;20.93;13.90;;;32.70;29.30;;;;;;5066314;28;20473;-68
2022/03/23 11:02:16;;;;;;;17.37;12.53;;;31.80;29.20;;;;;;5061570;28;20873;-67
2022/03/23 11:04:49;;;;;;;14.80;12.37;;;30.90;30.10;;;;;;5055804;28;20546;-68
2022/03/23 11:07:27;;;;;;;14.60;12.67;;;31.10;29.30;;;;;;5060073;28;20486;-68
2022/03/23 11:18:10;;;;;;;16.63;12.20;;;30.60;30.00;;;;;;5054948;28;20500;-66
2022/03/23 11:20:44;;;;;;;15.87;12.50;;;31.70;31.00;;;;;;5054280;28;20462;-70
2022/03/23 11:23:18;;;;;;;15.43;13.77;;;31.90;29.60;;;;;;5052182;28;20586;-69
2022/03/23 11:25:45;;;;;;;15.13;11.83;;;32.00;29.10;;;;;;5055596;28;20459;-69
2022/03/23 11:28:14;;;;;;;16.90;11.10;;;31.80;29.00;;;;;;5058746;28;20881;-69
2022/03/23 11:30:42;;;;;;;16.63;10.33;;;32.40;28.10;;;;;;5060955;28;20486;-68
2022/03/23 11:33:10;;;;;;;15.30;11.73;;;32.30;28.10;;;;;;5068880;28;20454;-68
2022/03/23 11:35:47;;;;;;;13.10;10.37;;;31.40;28.90;;;;;;5065643;28;20476;-68
2022/03/23 11:38:17;;;;;;;23.17;12.00;;;31.30;29.40;;;;;;5057875;28;20491;-69
2022/03/23 11:40:45;;;;;;;14.30;12.10;;;31.10;28.80;;;;;;5061822;28;20467;-70
2022/03/23 11:43:13;;;;;;;39.07;14.23;;;32.00;28.70;;;;;;5059935;28;20450;-68
2022/03/23 11:45:41;;;;;;;13.47;11.10;;;31.50;29.10;;;;;;5053303;28;20458;-68
2022/03/23 11:48:17;;;;;;;15.43;11.70;;;31.80;28.80;;;;;;5059611;28;20474;-68
2022/03/23 11:50:56;;;;;;;17.40;11.87;;;31.70;28.80;;;;;;5060655;28;20836;-68
2022/03/23 11:53:30;;;;;;;20.07;12.20;;;31.20;29.00;;;;;;5056735;28;20976;-68
2022/03/23 11:55:57;;;;;;;18.27;11.53;;;30.60;29.40;;;;;;5060002;28;20439;-68
2022/03/23 11:58:34;;;;;;;16.53;12.13;;;29.80;29.00;;;;;;5063607;28;20474;-69
2022/03/23 12:01:09;;;;;;;17.47;11.70;;;30.10;29.40;;;;;;5052745;28;20474;-68
2022/03/23 12:03:50;;;;;;;12.07;10.27;;;30.60;29.10;;;;;;5056892;28;20515;-68
2022/03/23 12:06:19;;;;;;;12.77;10.10;;;29.20;29.30;;;;;;5056851;28;20453;-68
2022/03/23 12:08:50;;;;;;;13.53;10.90;;;29.30;29.60;;;;;;5057684;28;20519;-68
2022/03/23 12:11:38;;;;;;;31.47;14.10;;;29.10;29.50;;;;;;5055563;28;21055;-68
2022/03/23 12:14:07;;;;;;;55.07;16.50;;;30.70;30.50;;;;;;5064072;28;20574;-68
2022/03/23 12:17:09;;;;;;;53.10;15.43;;;31.40;27.20;;;;;;5065165;28;20549;-68
2022/03/23 12:19:58;;;;;;;10.47;7.67;;;31.70;28.00;;;;;;5068425;28;20788;-68
2022/03/23 12:22:54;;;;;;;30.27;12.97;;;29.70;27.60;;;;;;5060480;28;20459;-68
2022/03/23 12:25:24;;;;;;;17.70;11.10;;;29.50;28.80;;;;;;5064678;28;20570;-68
2022/03/23 12:27:56;;;;;;;12.13;10.63;;;30.20;28.70;;;;;;5066468;28;20537;-68
2022/03/23 12:30:35;;;;;;;15.83;10.43;;;30.90;28.30;;;;;;5070100;28;20489;-69
2022/03/23 12:33:11;;;;;;;15.90;11.90;;;30.40;28.50;;;;;;5071562;28;20481;-68
2022/03/23 12:35:39;;;;;;;13.13;10.33;;;30.60;28.10;;;;;;5068337;28;20577;-68
2022/03/23 12:38:18;;;;;;;13.50;9.30;;;30.90;27.90;;;;;;5071955;28;20492;-68
2022/03/23 12:40:48;;;;;;;13.13;9.57;;;29.80;28.40;;;;;;5062871;28;20639;-69
2022/03/23 12:43:37;;;;;;;13.07;10.20;;;29.50;28.30;;;;;;5059413;28;20459;-67
2022/03/23 12:46:07;;;;;;;14.47;10.50;;;29.60;30.30;;;;;;5059029;28;20686;-68
2022/03/23 12:59:37;;;;;;;17.20;10.87;;;33.20;27.80;;;;;;5065152;28;21036;-69
2022/03/23 13:02:28;;;;;;;18.20;13.67;;;32.40;27.90;;;;;;5059622;28;20439;-69
2022/03/23 13:04:57;;;;;;;15.37;11.27;;;33.30;27.80;;;;;;5053540;28;20951;-68
2022/03/23 13:07:44;;;;;;;15.40;11.33;;;32.40;27.50;;;;;;5055676;28;20538;-70
2022/03/23 13:10:13;;;;;;;15.97;12.20;;;32.40;27.20;;;;;;5052871;28;20494;-69
2022/03/23 13:12:44;;;;;;;16.63;11.47;;;32.80;27.00;;;;;;5057769;28;20447;-68
2022/03/23 13:15:13;;;;;;;19.83;13.03;;;32.70;27.40;;;;;;5054093;28;20473;-68
2022/03/23 13:17:41;;;;;;;15.80;12.67;;;32.90;28.00;;;;;;5060117;28;20520;-69
2022/03/23 13:20:10;;;;;;;14.53;11.13;;;32.90;28.40;;;;;;5059415;28;20479;-68
2022/03/23 13:22:38;;;;;;;15.00;11.63;;;33.10;27.50;;;;;;5056436;28;20466;-68
2022/03/23 13:25:07;;;;;;;17.37;12.50;;;33.10;26.90;;;;;;5056681;28;20451;-68
2022/03/23 13:27:37;;;;;;;15.70;12.60;;;33.40;27.20;;;;;;5060124;28;20621;-68
2022/03/23 13:30:08;;;;;;;17.33;12.90;;;32.50;26.60;;;;;;5055971;28;20474;-68
2022/03/23 13:32:39;;;;;;;13.73;10.67;;;31.70;27.70;;;;;;5060806;28;20527;-68